This is the latest recevied weather packets stored in our database for station/object WC0AA-WX. If no packets are shown the sender has not sent any weather packets the latest 10 day(s).
| Time | Temp. | Humidity | Pressure | Rain* | Wind** | Luminosity | Snow |
|---|---|---|---|---|---|---|---|
| 1777997867 | 11.67° C | 72% | 1013.2 hPa | 0 mm | - | - | - |
| 1777997266 | 11.11° C | 73% | 1013.2 hPa | 0 mm | - | - | - |
| 1777996664 | 11.11° C | 74% | 1013.3 hPa | 0 mm | - | - | - |
| 1777993660 | 10° C | 80% | 1013.4 hPa | 0 mm | - | - | - |
| 1777993059 | 9.44° C | 82% | 1013.1 hPa | 0 mm | - | - | - |
| 1777991857 | 8.89° C | 83% | 1013.1 hPa | 0 mm | - | - | - |
| 1777991256 | 8.89° C | 85% | 1012.8 hPa | 0 mm | - | - | - |
| 1777990054 | 8.89° C | 84% | 1012.4 hPa | 0 mm | - | - | - |
| 1777989454 | 8.89° C | 82% | 1012.5 hPa | 0 mm | - | - | - |
| 1777988852 | 8.89° C | 83% | 1012.5 hPa | 0 mm | - | - | - |
| 1777988251 | 8.89° C | 83% | 1012.5 hPa | 0 mm | - | - | - |
| 1777987650 | 8.89° C | 82% | 1012.5 hPa | 0 mm | - | - | - |
| 1777987049 | 8.33° C | 83% | 1012 hPa | 0 mm | - | - | - |
| 1777985247 | 8.33° C | 84% | 1012.1 hPa | 0 mm | - | - | - |
| 1777984044 | 8.33° C | 80% | 1011.7 hPa | 0 mm | - | - | - |
| 1777983443 | 8.33° C | 80% | 1012 hPa | 0 mm | - | - | - |
| 1777982241 | 9.44° C | 69% | 1011.7 hPa | 0 mm | - | - | - |
| 1777981039 | 9.44° C | 66% | 1010 hPa | 0 mm | - | - | - |
| 1777980438 | 9.44° C | 66% | 1010.1 hPa | 0 mm | - | - | - |
| 1777979837 | 9.44° C | 65% | 1009.8 hPa | 0 mm | - | - | - |
| 1777979236 | 9.44° C | 66% | 1009.8 hPa | 0 mm | - | - | - |
| 1777978034 | 10° C | 65% | 1009.9 hPa | 0 mm | - | - | - |
| 1777975030 | 11.11° C | 55% | 1009.8 hPa | 0 mm | - | - | - |
| 1777974429 | 11.11° C | 55% | 1009.8 hPa | 0 mm | - | - | - |
| 1777973827 | 11.11° C | 54% | 1009.9 hPa | 0 mm | - | - | - |
* Rain latest hour (hover to see other rain measurements)
** Current wind speed in m/s (hover to see current wind gust speed)